sensor_id;sensor_type;location;lat;lon;timestamp;pressure;altitude;pressure_sealevel;temperature
24586;BMP280;12743;52.262;6.172;2023-03-21T00:01:40;99991.78;;;8.92
24586;BMP280;12743;52.262;6.172;2023-03-21T00:04:06;99989.50;;;8.90
24586;BMP280;12743;52.262;6.172;2023-03-21T00:06:33;99979.47;;;8.80
24586;BMP280;12743;52.262;6.172;2023-03-21T00:09:03;99984.28;;;8.90
24586;BMP280;12743;52.262;6.172;2023-03-21T00:11:32;99984.28;;;8.90
24586;BMP280;12743;52.262;6.172;2023-03-21T00:13:59;99982.84;;;8.93
24586;BMP280;12743;52.262;6.172;2023-03-21T00:16:28;99985.91;;;8.95
24586;BMP280;12743;52.262;6.172;2023-03-21T00:19:01;99982.22;;;8.96
24586;BMP280;12743;52.262;6.172;2023-03-21T00:21:32;99976.97;;;8.96
24586;BMP280;12743;52.262;6.172;2023-03-21T00:24:19;99984.47;;;8.97
24586;BMP280;12743;52.262;6.172;2023-03-21T00:26:49;99973.91;;;8.94
24586;BMP280;12743;52.262;6.172;2023-03-21T00:29:16;99978.47;;;8.97
24586;BMP280;12743;52.262;6.172;2023-03-21T00:31:45;99973.16;;;8.93
24586;BMP280;12743;52.262;6.172;2023-03-21T00:34:12;99976.28;;;8.99
24586;BMP280;12743;52.262;6.172;2023-03-21T00:36:43;99976.59;;;8.97
24586;BMP280;12743;52.262;6.172;2023-03-21T00:39:10;99968.00;;;8.97
24586;BMP280;12743;52.262;6.172;2023-03-21T00:41:37;99963.75;;;8.92
24586;BMP280;12743;52.262;6.172;2023-03-21T00:44:10;99964.28;;;8.98
24586;BMP280;12743;52.262;6.172;2023-03-21T00:46:39;99962.34;;;8.95
24586;BMP280;12743;52.262;6.172;2023-03-21T00:49:14;99966.38;;;8.92
24586;BMP280;12743;52.262;6.172;2023-03-21T00:51:41;99967.91;;;8.93
24586;BMP280;12743;52.262;6.172;2023-03-21T00:54:10;99957.44;;;8.93
24586;BMP280;12743;52.262;6.172;2023-03-21T00:56:39;99963.00;;;8.92
24586;BMP280;12743;52.262;6.172;2023-03-21T00:59:06;99951.31;;;8.89
24586;BMP280;12743;52.262;6.172;2023-03-21T01:01:32;99951.31;;;8.89
24586;BMP280;12743;52.262;6.172;2023-03-21T01:04:00;99949.78;;;8.88
24586;BMP280;12743;52.262;6.172;2023-03-21T01:06:35;99954.38;;;8.91
24586;BMP280;12743;52.262;6.172;2023-03-21T01:09:15;99950.66;;;8.92
24586;BMP280;12743;52.262;6.172;2023-03-21T01:11:42;99946.00;;;8.86
24586;BMP280;12743;52.262;6.172;2023-03-21T01:14:10;99920.00;;;8.68
24586;BMP280;12743;52.262;6.172;2023-03-21T01:16:49;99951.53;;;8.84
24586;BMP280;12743;52.262;6.172;2023-03-21T01:19:17;99946.28;;;8.84
24586;BMP280;12743;52.262;6.172;2023-03-21T01:21:53;99949.78;;;8.88
24586;BMP280;12743;52.262;6.172;2023-03-21T01:24:20;99947.50;;;8.87
24586;BMP280;12743;52.262;6.172;2023-03-21T01:26:47;99948.28;;;8.87
24586;BMP280;12743;52.262;6.172;2023-03-21T01:29:14;99945.22;;;8.85
24586;BMP280;12743;52.262;6.172;2023-03-21T01:31:41;99944.31;;;8.81
24586;BMP280;12743;52.262;6.172;2023-03-21T01:34:08;99949.91;;;8.80
24586;BMP280;12743;52.262;6.172;2023-03-21T01:36:35;99943.59;;;8.81
24586;BMP280;12743;52.262;6.172;2023-03-21T01:39:05;99933.75;;;8.77
24586;BMP280;12743;52.262;6.172;2023-03-21T01:41:36;99941.41;;;8.83
24586;BMP280;12743;52.262;6.172;2023-03-21T01:44:18;99934.09;;;8.76
24586;BMP280;12743;52.262;6.172;2023-03-21T01:46:47;99930.03;;;8.79
24586;BMP280;12743;52.262;6.172;2023-03-21T01:49:46;99926.25;;;8.76
24586;BMP280;12743;52.262;6.172;2023-03-21T01:52:39;99931.25;;;8.81
24586;BMP280;12743;52.262;6.172;2023-03-21T01:55:31;99925.25;;;8.81
24586;BMP280;12743;52.262;6.172;2023-03-21T01:58:17;99906.06;;;8.64
24586;BMP280;12743;52.262;6.172;2023-03-21T02:00:59;99916.94;;;8.79
24586;BMP280;12743;52.262;6.172;2023-03-21T02:03:41;99923.38;;;8.81
24586;BMP280;12743;52.262;6.172;2023-03-21T02:06:35;99920.75;;;8.81
24586;BMP280;12743;52.262;6.172;2023-03-21T02:09:13;99895.38;;;8.69
24586;BMP280;12743;52.262;6.172;2023-03-21T02:11:42;99910.63;;;8.80
24586;BMP280;12743;52.262;6.172;2023-03-21T02:14:15;99913.69;;;8.82
24586;BMP280;12743;52.262;6.172;2023-03-21T02:17:51;99911.06;;;8.82
24586;BMP280;12743;52.262;6.172;2023-03-21T02:28:40;99901.38;;;8.82
24586;BMP280;12743;52.262;6.172;2023-03-21T02:31:41;99890.56;;;8.84
24586;BMP280;12743;52.262;6.172;2023-03-21T02:37:21;99890.00;;;8.78
24586;BMP280;12743;52.262;6.172;2023-03-21T02:40:12;99888.28;;;8.82
24586;BMP280;12743;52.262;6.172;2023-03-21T02:42:58;99885.34;;;8.84
24586;BMP280;12743;52.262;6.172;2023-03-21T02:45:39;99882.72;;;8.84
24586;BMP280;12743;52.262;6.172;2023-03-21T02:48:13;99879.34;;;8.83
24586;BMP280;12743;52.262;6.172;2023-03-21T02:50:58;99883.03;;;8.82
24586;BMP280;12743;52.262;6.172;2023-03-21T02:53:27;99873.75;;;8.85
24586;BMP280;12743;52.262;6.172;2023-03-21T02:55:57;99874.88;;;8.84
24586;BMP280;12743;52.262;6.172;2023-03-21T02:58:26;99866.69;;;8.85
24586;BMP280;12743;52.262;6.172;2023-03-21T03:00:56;99861.22;;;8.78
24586;BMP280;12743;52.262;6.172;2023-03-21T03:03:31;99865.91;;;8.85
24586;BMP280;12743;52.262;6.172;2023-03-21T03:06:07;99865.13;;;8.84
24586;BMP280;12743;52.262;6.172;2023-03-21T03:08:48;99870.72;;;8.83
24586;BMP280;12743;52.262;6.172;2023-03-21T03:11:37;99861.88;;;8.87
24586;BMP280;12743;52.262;6.172;2023-03-21T03:14:45;99862.97;;;8.86
24586;BMP280;12743;52.262;6.172;2023-03-21T03:17:42;99829.47;;;8.67
24586;BMP280;12743;52.262;6.172;2023-03-21T03:20:19;99861.78;;;8.84
24586;BMP280;12743;52.262;6.172;2023-03-21T03:25:27;99864.41;;;8.84
24586;BMP280;12743;52.262;6.172;2023-03-21T03:28:08;99865.47;;;8.83
24586;BMP280;12743;52.262;6.172;2023-03-21T03:30:37;99860.66;;;8.85
24586;BMP280;12743;52.262;6.172;2023-03-21T03:33:19;99860.66;;;8.85
24586;BMP280;12743;52.262;6.172;2023-03-21T03:35:49;99861.00;;;8.83
24586;BMP280;12743;52.262;6.172;2023-03-21T03:38:33;99816.97;;;8.61
24586;BMP280;12743;52.262;6.172;2023-03-21T03:41:08;99853.59;;;8.85
24586;BMP280;12743;52.262;6.172;2023-03-21T03:43:48;99855.88;;;8.87
24586;BMP280;12743;52.262;6.172;2023-03-21T03:46:39;99854.66;;;8.84
24586;BMP280;12743;52.262;6.172;2023-03-21T03:49:14;99853.25;;;8.87
24586;BMP280;12743;52.262;6.172;2023-03-21T03:51:50;99848.34;;;8.85
24586;BMP280;12743;52.262;6.172;2023-03-21T03:54:36;99812.84;;;8.60
24586;BMP280;12743;52.262;6.172;2023-03-21T03:57:04;99849.13;;;8.86
24586;BMP280;12743;52.262;6.172;2023-03-21T03:59:35;99847.34;;;8.90
24586;BMP280;12743;52.262;6.172;2023-03-21T04:02:23;99831.03;;;8.81
24586;BMP280;12743;52.262;6.172;2023-03-21T04:04:51;99841.25;;;8.86
24586;BMP280;12743;52.262;6.172;2023-03-21T04:07:20;99812.38;;;8.70
24586;BMP280;12743;52.262;6.172;2023-03-21T04:09:48;99827.94;;;8.79
24586;BMP280;12743;52.262;6.172;2023-03-21T04:12:17;99840.84;;;8.84
24586;BMP280;12743;52.262;6.172;2023-03-21T04:15:11;99842.03;;;8.86
24586;BMP280;12743;52.262;6.172;2023-03-21T04:17:42;99825.47;;;8.70
24586;BMP280;12743;52.262;6.172;2023-03-21T04:20:11;99837.09;;;8.85
24586;BMP280;12743;52.262;6.172;2023-03-21T04:22:52;99846.16;;;8.87
24586;BMP280;12743;52.262;6.172;2023-03-21T04:25:19;99841.56;;;8.84
24586;BMP280;12743;52.262;6.172;2023-03-21T04:27:59;99837.88;;;8.85
24586;BMP280;12743;52.262;6.172;2023-03-21T04:30:38;99832.53;;;8.82
24586;BMP280;12743;52.262;6.172;2023-03-21T04:33:17;99841.56;;;8.84
24586;BMP280;12743;52.262;6.172;2023-03-21T04:35:51;99848.44;;;8.89
24586;BMP280;12743;52.262;6.172;2023-03-21T04:38:26;99823.03;;;8.89
24586;BMP280;12743;52.262;6.172;2023-03-21T04:40:59;99826.84;;;8.92
24586;BMP280;12743;52.262;6.172;2023-03-21T04:43:28;99828.56;;;8.88
24586;BMP280;12743;52.262;6.172;2023-03-21T04:45:56;99799.59;;;8.68
24586;BMP280;12743;52.262;6.172;2023-03-21T04:48:22;99834.91;;;8.87
24586;BMP280;12743;52.262;6.172;2023-03-21T04:50:50;99830.09;;;8.89
24586;BMP280;12743;52.262;6.172;2023-03-21T04:53:17;99825.13;;;8.84
24586;BMP280;12743;52.262;6.172;2023-03-21T04:55:44;99824.94;;;8.77
24586;BMP280;12743;52.262;6.172;2023-03-21T04:58:11;99832.53;;;8.82
24586;BMP280;12743;52.262;6.172;2023-03-21T05:00:38;99835.78;;;8.79
24586;BMP280;12743;52.262;6.172;2023-03-21T05:03:06;99829.78;;;8.78
24586;BMP280;12743;52.262;6.172;2023-03-21T05:05:37;99840.28;;;8.78
24586;BMP280;12743;52.262;6.172;2023-03-21T05:08:05;99832.31;;;8.74
24586;BMP280;12743;52.262;6.172;2023-03-21T05:10:32;99834.94;;;8.74
24586;BMP280;12743;52.262;6.172;2023-03-21T05:12:59;99833.75;;;8.72
24586;BMP280;12743;52.262;6.172;2023-03-21T05:15:26;99807.97;;;8.46
24586;BMP280;12743;52.262;6.172;2023-03-21T05:17:53;99853.59;;;8.73
24586;BMP280;12743;52.262;6.172;2023-03-21T05:20:20;99845.63;;;8.69
24586;BMP280;12743;52.262;6.172;2023-03-21T05:22:47;99844.34;;;8.63
24586;BMP280;12743;52.262;6.172;2023-03-21T05:25:17;99846.72;;;8.68
24586;BMP280;12743;52.262;6.172;2023-03-21T05:28:08;99848.47;;;8.64
24586;BMP280;12743;52.262;6.172;2023-03-21T05:30:35;99849.34;;;8.68
24586;BMP280;12743;52.262;6.172;2023-03-21T05:33:02;99843.59;;;8.63
24586;BMP280;12743;52.262;6.172;2023-03-21T05:35:29;99848.94;;;8.66
24586;BMP280;12743;52.262;6.172;2023-03-21T05:37:58;99836.81;;;8.62
24586;BMP280;12743;52.262;6.172;2023-03-21T05:40:29;99850.78;;;8.66
24586;BMP280;12743;52.262;6.172;2023-03-21T05:42:57;99848.94;;;8.66
24586;BMP280;12743;52.262;6.172;2023-03-21T05:45:24;99849.25;;;8.65
24586;BMP280;12743;52.262;6.172;2023-03-21T05:47:52;99845.44;;;8.62
24586;BMP280;12743;52.262;6.172;2023-03-21T05:50:27;99845.13;;;8.64
24586;BMP280;12743;52.262;6.172;2023-03-21T05:53:10;99851.09;;;8.64
24586;BMP280;12743;52.262;6.172;2023-03-21T05:55:38;99855.47;;;8.60
24586;BMP280;12743;52.262;6.172;2023-03-21T05:58:09;99815.06;;;8.34
24586;BMP280;12743;52.262;6.172;2023-03-21T06:00:43;99849.69;;;8.55
24586;BMP280;12743;52.262;6.172;2023-03-21T06:03:19;99846.31;;;8.54
24586;BMP280;12743;52.262;6.172;2023-03-21T06:06:06;99853.72;;;8.52
24586;BMP280;12743;52.262;6.172;2023-03-21T06:08:42;99849.91;;;8.50
24586;BMP280;12743;52.262;6.172;2023-03-21T06:11:25;99846.41;;;8.58
24586;BMP280;12743;52.262;6.172;2023-03-21T06:14:10;99850.69;;;8.50
24586;BMP280;12743;52.262;6.172;2023-03-21T06:16:38;99855.78;;;8.59
24586;BMP280;12743;52.262;6.172;2023-03-21T06:19:05;99843.38;;;8.56
24586;BMP280;12743;52.262;6.172;2023-03-21T06:21:47;99847.16;;;8.58
24586;BMP280;12743;52.262;6.172;2023-03-21T06:24:14;99842.63;;;8.55
24586;BMP280;12743;52.262;6.172;2023-03-21T06:26:41;99847.53;;;8.57
24586;BMP280;12743;52.262;6.172;2023-03-21T06:29:08;99828.34;;;8.53
24586;BMP280;12743;52.262;6.172;2023-03-21T06:31:35;99835.63;;;8.59
24586;BMP280;12743;52.262;6.172;2023-03-21T06:34:03;99839.00;;;8.60
24586;BMP280;12743;52.262;6.172;2023-03-21T06:36:31;99838.47;;;8.54
24586;BMP280;12743;52.262;6.172;2023-03-21T06:38:57;99835.09;;;8.54
24586;BMP280;12743;52.262;6.172;2023-03-21T06:41:24;99847.53;;;8.57
24586;BMP280;12743;52.262;6.172;2023-03-21T06:43:57;99844.56;;;8.58
24586;BMP280;12743;52.262;6.172;2023-03-21T06:46:24;99837.47;;;8.59
24586;BMP280;12743;52.262;6.172;2023-03-21T06:48:51;99836.38;;;8.60
24586;BMP280;12743;52.262;6.172;2023-03-21T06:51:19;99826.69;;;8.60
24586;BMP280;12743;52.262;6.172;2023-03-21T06:53:57;99825.91;;;8.60
24586;BMP280;12743;52.262;6.172;2023-03-21T06:56:33;99822.84;;;8.58
24586;BMP280;12743;52.262;6.172;2023-03-21T06:59:02;99830.81;;;8.61
24586;BMP280;12743;52.262;6.172;2023-03-21T07:01:45;99826.13;;;8.67
24586;BMP280;12743;52.262;6.172;2023-03-21T07:04:12;99834.84;;;8.71
24586;BMP280;12743;52.262;6.172;2023-03-21T07:06:39;99810.44;;;8.55
24586;BMP280;12743;52.262;6.172;2023-03-21T07:09:05;99834.53;;;8.72
24586;BMP280;12743;52.262;6.172;2023-03-21T07:11:34;99829.28;;;8.72
24586;BMP280;12743;52.262;6.172;2023-03-21T07:14:03;99830.38;;;8.71
24586;BMP280;12743;52.262;6.172;2023-03-21T07:16:30;99831.13;;;8.72
24586;BMP280;12743;52.262;6.172;2023-03-21T07:18:56;99826.56;;;8.69
24586;BMP280;12743;52.262;6.172;2023-03-21T07:21:23;99833.88;;;8.76
24586;BMP280;12743;52.262;6.172;2023-03-21T07:23:50;99835.78;;;8.79
24586;BMP280;12743;52.262;6.172;2023-03-21T07:26:16;99833.63;;;8.81
24586;BMP280;12743;52.262;6.172;2023-03-21T07:28:44;99829.91;;;8.82
24586;BMP280;12743;52.262;6.172;2023-03-21T07:31:13;99827.56;;;8.77
24586;BMP280;12743;52.262;6.172;2023-03-21T07:33:40;99826.31;;;8.74
24586;BMP280;12743;52.262;6.172;2023-03-21T07:36:09;99829.03;;;8.77
24586;BMP280;12743;52.262;6.172;2023-03-21T07:38:38;99829.59;;;8.83
24586;BMP280;12743;52.262;6.172;2023-03-21T07:41:05;99821.75;;;8.83
24586;BMP280;12743;52.262;6.172;2023-03-21T07:43:34;99806.91;;;8.75
24586;BMP280;12743;52.262;6.172;2023-03-21T07:46:07;99828.47;;;8.84
24586;BMP280;12743;52.262;6.172;2023-03-21T07:48:34;99817.78;;;8.89
24586;BMP280;12743;52.262;6.172;2023-03-21T07:51:00;99810.25;;;8.88
24586;BMP280;12743;52.262;6.172;2023-03-21T07:53:27;99815.28;;;8.93
24586;BMP280;12743;52.262;6.172;2023-03-21T07:55:55;99817.63;;;8.98
24586;BMP280;12743;52.262;6.172;2023-03-21T07:58:23;99814.81;;;9.03
24586;BMP280;12743;52.262;6.172;2023-03-21T08:00:50;99815.59;;;9.03
24586;BMP280;12743;52.262;6.172;2023-03-21T08:03:17;99811.16;;;9.07
24586;BMP280;12743;52.262;6.172;2023-03-21T08:05:44;99805.53;;;9.05
24586;BMP280;12743;52.262;6.172;2023-03-21T08:08:11;99807.03;;;9.06
24586;BMP280;12743;52.262;6.172;2023-03-21T08:10:38;99788.44;;;8.96
24586;BMP280;12743;52.262;6.172;2023-03-21T08:13:05;99799.09;;;9.03
24586;BMP280;12743;52.262;6.172;2023-03-21T08:15:31;99778.31;;;8.82
24586;BMP280;12743;52.262;6.172;2023-03-21T08:17:58;99786.69;;;8.88
24586;BMP280;12743;52.262;6.172;2023-03-21T08:20:25;99806.19;;;9.02
24586;BMP280;12743;52.262;6.172;2023-03-21T08:22:52;99811.16;;;9.07
24586;BMP280;12743;52.262;6.172;2023-03-21T08:25:20;99814.66;;;9.11
24586;BMP280;12743;52.262;6.172;2023-03-21T08:27:49;99805.09;;;9.03
24586;BMP280;12743;52.262;6.172;2023-03-21T08:30:18;99811.94;;;9.08
24586;BMP280;12743;52.262;6.172;2023-03-21T08:32:45;99798.66;;;9.01
24586;BMP280;12743;52.262;6.172;2023-03-21T08:35:14;99816.41;;;9.07
24586;BMP280;12743;52.262;6.172;2023-03-21T08:37:41;99811.63;;;9.09
24586;BMP280;12743;52.262;6.172;2023-03-21T08:40:12;99813.66;;;9.16
24586;BMP280;12743;52.262;6.172;2023-03-21T08:42:40;99810.25;;;9.15
24586;BMP280;12743;52.262;6.172;2023-03-21T08:45:08;99816.69;;;9.18
24586;BMP280;12743;52.262;6.172;2023-03-21T08:47:35;99808.53;;;9.19
24586;BMP280;12743;52.262;6.172;2023-03-21T08:50:03;99813.88;;;9.23
24586;BMP280;12743;52.262;6.172;2023-03-21T08:52:32;99779.22;;;9.02
24586;BMP280;12743;52.262;6.172;2023-03-21T08:54:59;99806.41;;;9.25
24586;BMP280;12743;52.262;6.172;2023-03-21T08:57:28;99797.56;;;9.29
24586;BMP280;12743;52.262;6.172;2023-03-21T08:59:54;99799.53;;;9.32
24586;BMP280;12743;52.262;6.172;2023-03-21T09:02:21;99793.50;;;9.32
24586;BMP280;12743;52.262;6.172;2023-03-21T09:04:48;99778.63;;;9.36
24586;BMP280;12743;52.262;6.172;2023-03-21T09:07:15;99792.16;;;9.38
24586;BMP280;12743;52.262;6.172;2023-03-21T09:09:42;99784.47;;;9.45
24586;BMP280;12743;52.262;6.172;2023-03-21T09:12:10;99786.44;;;9.48
24586;BMP280;12743;52.262;6.172;2023-03-21T09:14:36;99786.09;;;9.50
24586;BMP280;12743;52.262;6.172;2023-03-21T09:17:03;99782.78;;;9.53
24586;BMP280;12743;52.262;6.172;2023-03-21T09:19:29;99765.63;;;9.55
24586;BMP280;12743;52.262;6.172;2023-03-21T09:21:57;99773.66;;;9.62
24586;BMP280;12743;52.262;6.172;2023-03-21T09:24:24;99761.25;;;9.59
24586;BMP280;12743;52.262;6.172;2023-03-21T09:26:51;99754.88;;;9.60
24586;BMP280;12743;52.262;6.172;2023-03-21T09:29:18;99757.25;;;9.65
24586;BMP280;12743;52.262;6.172;2023-03-21T09:31:46;99753.09;;;9.64
24586;BMP280;12743;52.262;6.172;2023-03-21T09:34:13;99739.00;;;9.69
24586;BMP280;12743;52.262;6.172;2023-03-21T09:36:41;99733.31;;;9.67
24586;BMP280;12743;52.262;6.172;2023-03-21T09:39:10;99724.25;;;9.80
24586;BMP280;12743;52.262;6.172;2023-03-21T09:47:25;99692.56;;;9.85
24586;BMP280;12743;52.262;6.172;2023-03-21T09:50:18;99686.69;;;9.91
24586;BMP280;12743;52.262;6.172;2023-03-21T09:52:56;99630.19;;;9.59
24586;BMP280;12743;52.262;6.172;2023-03-21T09:55:27;99676.34;;;9.98
24586;BMP280;12743;52.262;6.172;2023-03-21T10:00:32;99667.09;;;9.85
24586;BMP280;12743;52.262;6.172;2023-03-21T10:03:04;99653.06;;;9.97
24586;BMP280;12743;52.262;6.172;2023-03-21T10:05:33;99643.91;;;10.06
24586;BMP280;12743;52.262;6.172;2023-03-21T10:08:08;99645.28;;;10.00
24586;BMP280;12743;52.262;6.172;2023-03-21T10:10:44;99631.00;;;9.98
24586;BMP280;12743;52.262;6.172;2023-03-21T10:13:16;99636.75;;;10.03
24586;BMP280;12743;52.262;6.172;2023-03-21T10:15:44;99635.16;;;9.99
24586;BMP280;12743;52.262;6.172;2023-03-21T10:18:15;99629.22;;;10.02
24586;BMP280;12743;52.262;6.172;2023-03-21T10:20:44;99623.97;;;10.02
24586;BMP280;12743;52.262;6.172;2023-03-21T10:23:16;99622.19;;;10.06
24586;BMP280;12743;52.262;6.172;2023-03-21T10:25:49;99610.94;;;10.05
24586;BMP280;12743;52.262;6.172;2023-03-21T10:28:22;99612.94;;;10.12
24586;BMP280;12743;52.262;6.172;2023-03-21T10:30:53;99616.66;;;10.11
24586;BMP280;12743;52.262;6.172;2023-03-21T10:33:25;99609.16;;;10.10
24586;BMP280;12743;52.262;6.172;2023-03-21T10:35:59;99589.66;;;10.11
24586;BMP280;12743;52.262;6.172;2023-03-21T10:38:26;99587.53;;;10.16
24586;BMP280;12743;52.262;6.172;2023-03-21T10:40:53;99591.09;;;10.27
24586;BMP280;12743;52.262;6.172;2023-03-21T10:45:53;99584.03;;;10.31
24586;BMP280;12743;52.262;6.172;2023-03-21T10:48:21;99578.03;;;10.31
24586;BMP280;12743;52.262;6.172;2023-03-21T10:50:51;99583.47;;;10.41
24586;BMP280;12743;52.262;6.172;2023-03-21T10:53:21;99578.94;;;10.38
24586;BMP280;12743;52.262;6.172;2023-03-21T10:55:53;99578.81;;;10.31
24586;BMP280;12743;52.262;6.172;2023-03-21T10:58:25;99585.47;;;10.48
24586;BMP280;12743;52.262;6.172;2023-03-21T11:00:57;99579.81;;;10.46
24586;BMP280;12743;52.262;6.172;2023-03-21T11:03:35;99577.94;;;10.46
24586;BMP280;12743;52.262;6.172;2023-03-21T11:08:29;99574.97;;;10.48
24586;BMP280;12743;52.262;6.172;2023-03-21T11:11:02;99576.19;;;10.54
24586;BMP280;12743;52.262;6.172;2023-03-21T11:13:58;99567.81;;;10.67
24586;BMP280;12743;52.262;6.172;2023-03-21T11:16:31;99535.88;;;10.43
24586;BMP280;12743;52.262;6.172;2023-03-21T11:19:09;99557.41;;;10.74
24586;BMP280;12743;52.262;6.172;2023-03-21T11:21:37;99564.66;;;10.81
24586;BMP280;12743;52.262;6.172;2023-03-21T11:24:05;99540.06;;;10.70
24586;BMP280;12743;52.262;6.172;2023-03-21T11:26:35;99565.19;;;10.94
24586;BMP280;12743;52.262;6.172;2023-03-21T11:31:59;99583.84;;;11.08
24586;BMP280;12743;52.262;6.172;2023-03-21T11:34:32;99590.63;;;11.12
24586;BMP280;12743;52.262;6.172;2023-03-21T11:37:01;99592.16;;;11.13
24586;BMP280;12743;52.262;6.172;2023-03-21T11:41:56;99631.13;;;11.34
24586;BMP280;12743;52.262;6.172;2023-03-21T11:44:34;99621.97;;;11.51
24586;BMP280;12743;52.262;6.172;2023-03-21T11:47:09;99613.34;;;11.24
24586;BMP280;12743;52.262;6.172;2023-03-21T11:49:36;99645.19;;;11.48
24586;BMP280;12743;52.262;6.172;2023-03-21T11:52:29;99661.63;;;11.42
24586;BMP280;12743;52.262;6.172;2023-03-21T11:58:36;99670.03;;;11.25
24586;BMP280;12743;52.262;6.172;2023-03-21T12:03:27;99656.63;;;11.33
24586;BMP280;12743;52.262;6.172;2023-03-21T12:06:16;99655.19;;;11.36
24586;BMP280;12743;52.262;6.172;2023-03-21T12:12:08;99621.97;;;11.51
24586;BMP280;12743;52.262;6.172;2023-03-21T12:20:24;99634.13;;;11.92
24586;BMP280;12743;52.262;6.172;2023-03-21T12:28:57;99672.47;;;11.93
24586;BMP280;12743;52.262;6.172;2023-03-21T12:37:24;99684.03;;;11.85
24586;BMP280;12743;52.262;6.172;2023-03-21T12:42:55;99677.34;;;11.91
24586;BMP280;12743;52.262;6.172;2023-03-21T12:45:36;99692.28;;;11.83
24586;BMP280;12743;52.262;6.172;2023-03-21T12:48:52;99686.28;;;11.83
24586;BMP280;12743;52.262;6.172;2023-03-21T12:51:25;99687.31;;;11.78
24586;BMP280;12743;52.262;6.172;2023-03-21T12:54:03;99680.94;;;11.79
24586;BMP280;12743;52.262;6.172;2023-03-21T12:56:35;99672.00;;;11.84
24586;BMP280;12743;52.262;6.172;2023-03-21T13:02:17;99651.69;;;11.55
24586;BMP280;12743;52.262;6.172;2023-03-21T13:04:58;99715.41;;;11.97
24586;BMP280;12743;52.262;6.172;2023-03-21T13:07:33;99724.41;;;11.96
24586;BMP280;12743;52.262;6.172;2023-03-21T13:10:05;99745.06;;;11.94
24586;BMP280;12743;52.262;6.172;2023-03-21T13:15:52;99760.66;;;12.09
24586;BMP280;12743;52.262;6.172;2023-03-21T13:18:38;99769.34;;;12.10
24586;BMP280;12743;52.262;6.172;2023-03-21T13:21:13;99761.13;;;12.18
24586;BMP280;12743;52.262;6.172;2023-03-21T13:24:03;99719.41;;;12.17
24586;BMP280;12743;52.262;6.172;2023-03-21T13:26:37;99771.19;;;12.39
24586;BMP280;12743;52.262;6.172;2023-03-21T13:29:24;99777.31;;;12.47
24586;BMP280;12743;52.262;6.172;2023-03-21T13:31:54;99793.78;;;12.40
24586;BMP280;12743;52.262;6.172;2023-03-21T13:34:24;99832.97;;;12.19
24586;BMP280;12743;52.262;6.172;2023-03-21T13:36:51;99821.13;;;12.32
24586;BMP280;12743;52.262;6.172;2023-03-21T13:39:26;99830.41;;;12.23
24586;BMP280;12743;52.262;6.172;2023-03-21T13:41:54;99826.47;;;12.39
24586;BMP280;12743;52.262;6.172;2023-03-21T13:44:26;99817.75;;;12.32
24586;BMP280;12743;52.262;6.172;2023-03-21T13:47:05;99835.38;;;12.57
24586;BMP280;12743;52.262;6.172;2023-03-21T13:50:19;99829.50;;;12.71
24586;BMP280;12743;52.262;6.172;2023-03-21T13:55:40;99892.41;;;12.72
24586;BMP280;12743;52.262;6.172;2023-03-21T13:58:23;99884.38;;;12.95
24586;BMP280;12743;52.262;6.172;2023-03-21T14:01:27;99848.66;;;12.68
24586;BMP280;12743;52.262;6.172;2023-03-21T14:03:58;99896.16;;;13.05
24586;BMP280;12743;52.262;6.172;2023-03-21T14:09:21;99876.13;;;13.33
24586;BMP280;12743;52.262;6.172;2023-03-21T14:11:51;99897.50;;;13.65
24586;BMP280;12743;52.262;6.172;2023-03-21T14:14:25;99897.16;;;13.63
24586;BMP280;12743;52.262;6.172;2023-03-21T14:16:55;99948.19;;;13.85
24586;BMP280;12743;52.262;6.172;2023-03-21T14:19:28;99991.81;;;13.71
24586;BMP280;12743;52.262;6.172;2023-03-21T14:21:56;99978.28;;;13.40
24586;BMP280;12743;52.262;6.172;2023-03-21T14:24:23;99951.22;;;13.10
24586;BMP280;12743;52.262;6.172;2023-03-21T14:26:52;99978.19;;;13.29
24586;BMP280;12743;52.262;6.172;2023-03-21T14:29:24;99997.06;;;13.35
24586;BMP280;12743;52.262;6.172;2023-03-21T14:31:54;99978.34;;;13.43
24586;BMP280;12743;52.262;6.172;2023-03-21T14:34:22;99995.31;;;13.46
24586;BMP280;12743;52.262;6.172;2023-03-21T14:36:50;99974.72;;;13.58
24586;BMP280;12743;52.262;6.172;2023-03-21T14:39:29;100039.88;;;13.91
24586;BMP280;12743;52.262;6.172;2023-03-21T14:42:02;100088.31;;;14.49
24586;BMP280;12743;52.262;6.172;2023-03-21T14:44:40;100159.50;;;14.76
24586;BMP280;12743;52.262;6.172;2023-03-21T14:47:23;100171.19;;;13.98
24586;BMP280;12743;52.262;6.172;2023-03-21T14:49:51;100148.47;;;13.90
24586;BMP280;12743;52.262;6.172;2023-03-21T14:52:26;100131.75;;;13.79
24586;BMP280;12743;52.262;6.172;2023-03-21T14:54:54;100130.44;;;13.62
24586;BMP280;12743;52.262;6.172;2023-03-21T14:57:24;100122.97;;;13.71
24586;BMP280;12743;52.262;6.172;2023-03-21T14:59:53;100159.47;;;13.62
24586;BMP280;12743;52.262;6.172;2023-03-21T15:04:56;100118.97;;;13.51
24586;BMP280;12743;52.262;6.172;2023-03-21T15:07:27;100118.34;;;13.61
24586;BMP280;12743;52.262;6.172;2023-03-21T15:10:00;100114.06;;;13.49
24586;BMP280;12743;52.262;6.172;2023-03-21T15:12:29;100106.69;;;13.62
24586;BMP280;12743;52.262;6.172;2023-03-21T15:14:58;100078.00;;;13.94
24586;BMP280;12743;52.262;6.172;2023-03-21T15:17:25;100118.25;;;13.54
24586;BMP280;12743;52.262;6.172;2023-03-21T15:19:52;100116.28;;;13.47
24586;BMP280;12743;52.262;6.172;2023-03-21T15:22:32;100096.31;;;13.46
24586;BMP280;12743;52.262;6.172;2023-03-21T15:25:03;100107.72;;;13.28
24586;BMP280;12743;52.262;6.172;2023-03-21T15:27:35;100083.19;;;13.24
24586;BMP280;12743;52.262;6.172;2023-03-21T15:30:03;100071.84;;;13.20
24586;BMP280;12743;52.262;6.172;2023-03-21T15:32:32;100049.25;;;13.19
24586;BMP280;12743;52.262;6.172;2023-03-21T15:35:05;100026.59;;;12.88
24586;BMP280;12743;52.262;6.172;2023-03-21T15:37:34;100029.72;;;13.23
24586;BMP280;12743;52.262;6.172;2023-03-21T15:40:17;100016.78;;;13.15
24586;BMP280;12743;52.262;6.172;2023-03-21T15:42:44;99967.78;;;12.80
24586;BMP280;12743;52.262;6.172;2023-03-21T15:45:23;100024.13;;;12.99
24586;BMP280;12743;52.262;6.172;2023-03-21T15:47:51;100041.41;;;12.96
24586;BMP280;12743;52.262;6.172;2023-03-21T15:50:32;100044.84;;;13.00
24586;BMP280;12743;52.262;6.172;2023-03-21T15:53:01;100042.16;;;12.97
24586;BMP280;12743;52.262;6.172;2023-03-21T15:55:34;100014.69;;;12.98
24586;BMP280;12743;52.262;6.172;2023-03-21T15:58:05;99997.50;;;12.81
24586;BMP280;12743;52.262;6.172;2023-03-21T16:00:38;100020.94;;;12.86
24586;BMP280;12743;52.262;6.172;2023-03-21T16:03:13;100007.69;;;12.82
24586;BMP280;12743;52.262;6.172;2023-03-21T16:06:21;100004.56;;;12.73